Springer, Oklahoma
Current Conditions -  °F | °C
As of 1:55 PM on Friday 21 Nov 2014 (Local Time) from KADM Reporting Station
Overcast Overcast  
Wind Chill: 66°   Ceiling: 2300
Heat Index: 66°   Visibility: 10mi
Dew Point: 59°   Wind: 9mph
Humidity: 78%   Direction: 150°SSE
Pressure: 30.04"   Gusts: NA
Location:  34.31°N, 97.14°W
Report Text: KADM 211955Z 15008KT 10SM BKN023 BKN032 OVC039 19/15 A3004
Loading
Personal Weather Stations






























Interactive Weather Map New forecast layout! Learn more

10-Day Weather Forecast

Advertisements
Track Severe Weather on mobile